Terminal Aerodrome Forecast
Issued by NWS

Home | Current Version | Previous Version | Graphics & Text | Print | Product List | Glossary On
Versions: 1 2 3 4 5 6 7 8 9 10 11 12 13 14 15
000
FTUS43 KFGF 272320
TAFBJI
TAF
KBJI 272320Z 2800/2824 13008KT P6SM SCT040 BKN120
     FM280600 13008KT P6SM SCT250
     FM281100 13012KT P6SM VCTS BKN050CB
     FM281800 18015KT P6SM BKN080=

USA.gov is the U.S. government's official web portal to all federal, state and local government web resources and services.